sensor_id;sensor_type;location;lat;lon;timestamp;pressure;altitude;pressure_sealevel;temperature;humidity
65384;BME280;51986;52.788;41.368;2023-04-20T00:01:12;99677.97;;;11.99;24.75
65384;BME280;51986;52.788;41.368;2023-04-20T00:03:39;99708.66;;;12.31;24.93
65384;BME280;51986;52.788;41.368;2023-04-20T00:06:06;99693.13;;;12.33;24.60
65384;BME280;51986;52.788;41.368;2023-04-20T00:08:33;99690.56;;;12.26;24.39
65384;BME280;51986;52.788;41.368;2023-04-20T00:11:00;99691.59;;;11.94;25.29
65384;BME280;51986;52.788;41.368;2023-04-20T00:13:27;99700.88;;;12.17;24.85
65384;BME280;51986;52.788;41.368;2023-04-20T00:15:53;99663.56;;;12.04;25.23
65384;BME280;51986;52.788;41.368;2023-04-20T00:18:20;99671.81;;;12.09;25.49
65384;BME280;51986;52.788;41.368;2023-04-20T00:20:47;99680.28;;;11.94;25.27
65384;BME280;51986;52.788;41.368;2023-04-20T00:23:14;99654.13;;;11.54;25.63
65384;BME280;51986;52.788;41.368;2023-04-20T00:25:41;99690.56;;;11.84;25.81
65384;BME280;51986;52.788;41.368;2023-04-20T00:28:08;99686.09;;;11.78;25.38
65384;BME280;51986;52.788;41.368;2023-04-20T00:30:35;99662.78;;;11.58;25.62
65384;BME280;51986;52.788;41.368;2023-04-20T00:33:03;99676.28;;;11.75;25.63
65384;BME280;51986;52.788;41.368;2023-04-20T00:35:30;99677.34;;;11.81;25.71
65384;BME280;51986;52.788;41.368;2023-04-20T00:37:57;99676.56;;;11.88;25.80
65384;BME280;51986;52.788;41.368;2023-04-20T00:40:24;99663.78;;;11.79;25.21
65384;BME280;51986;52.788;41.368;2023-04-20T00:42:51;99682.22;;;11.86;25.61
65384;BME280;51986;52.788;41.368;2023-04-20T00:45:18;99651.00;;;11.70;26.02
65384;BME280;51986;52.788;41.368;2023-04-20T00:47:45;99665.00;;;11.64;25.38
65384;BME280;51986;52.788;41.368;2023-04-20T00:50:12;99663.97;;;11.54;25.93
65384;BME280;51986;52.788;41.368;2023-04-20T00:52:39;99670.34;;;11.53;25.70
65384;BME280;51986;52.788;41.368;2023-04-20T00:55:07;99655.63;;;11.59;26.13
65384;BME280;51986;52.788;41.368;2023-04-20T00:57:37;99658.28;;;11.55;25.96
65384;BME280;51986;52.788;41.368;2023-04-20T01:00:04;99651.53;;;11.47;26.18
65384;BME280;51986;52.788;41.368;2023-04-20T01:02:31;99638.72;;;11.46;26.39
65384;BME280;51986;52.788;41.368;2023-04-20T01:04:58;99648.25;;;11.32;26.42
65384;BME280;51986;52.788;41.368;2023-04-20T01:07:28;99651.63;;;11.33;26.50
65384;BME280;51986;52.788;41.368;2023-04-20T01:09:55;99653.84;;;11.38;26.13
65384;BME280;51986;52.788;41.368;2023-04-20T01:12:22;99645.66;;;11.25;25.98
65384;BME280;51986;52.788;41.368;2023-04-20T01:14:49;99640.78;;;11.20;26.71
65384;BME280;51986;52.788;41.368;2023-04-20T01:17:19;99631.69;;;11.25;26.17
65384;BME280;51986;52.788;41.368;2023-04-20T01:19:46;99636.63;;;11.19;26.23
65384;BME280;51986;52.788;41.368;2023-04-20T01:22:19;99623.13;;;11.10;26.06
65384;BME280;51986;52.788;41.368;2023-04-20T01:24:47;99652.25;;;10.85;26.89
65384;BME280;51986;52.788;41.368;2023-04-20T01:27:14;99617.94;;;10.85;26.95
65384;BME280;51986;52.788;41.368;2023-04-20T01:29:41;99657.19;;;10.76;26.97
65384;BME280;51986;52.788;41.368;2023-04-20T01:32:08;99600.06;;;10.23;27.24
65384;BME280;51986;52.788;41.368;2023-04-20T01:34:35;99629.00;;;10.62;27.22
65384;BME280;51986;52.788;41.368;2023-04-20T01:37:03;99637.69;;;10.55;27.76
65384;BME280;51986;52.788;41.368;2023-04-20T01:39:31;99631.25;;;10.60;27.46
65384;BME280;51986;52.788;41.368;2023-04-20T01:41:58;99641.41;;;10.62;27.60
65384;BME280;51986;52.788;41.368;2023-04-20T01:44:25;99617.69;;;10.62;27.38
65384;BME280;51986;52.788;41.368;2023-04-20T01:46:52;99635.47;;;10.40;27.89
65384;BME280;51986;52.788;41.368;2023-04-20T01:49:19;99615.16;;;10.26;27.79
65384;BME280;51986;52.788;41.368;2023-04-20T01:51:46;99618.88;;;10.46;27.50
65384;BME280;51986;52.788;41.368;2023-04-20T01:54:13;99642.63;;;10.28;27.38
65384;BME280;51986;52.788;41.368;2023-04-20T01:56:40;99617.78;;;10.26;27.53
65384;BME280;51986;52.788;41.368;2023-04-20T01:59:07;99619.69;;;10.11;27.86
65384;BME280;51986;52.788;41.368;2023-04-20T02:01:34;99627.94;;;10.27;27.92
65384;BME280;51986;52.788;41.368;2023-04-20T02:04:01;99607.66;;;10.06;27.91
65384;BME280;51986;52.788;41.368;2023-04-20T02:06:28;99609.88;;;10.26;27.68
65384;BME280;51986;52.788;41.368;2023-04-20T02:08:55;99628.75;;;10.06;27.55
65384;BME280;51986;52.788;41.368;2023-04-20T02:11:22;99618.22;;;9.92;27.86
65384;BME280;51986;52.788;41.368;2023-04-20T02:13:49;99590.34;;;9.95;27.65
65384;BME280;51986;52.788;41.368;2023-04-20T02:16:16;99638.91;;;9.97;28.02
65384;BME280;51986;52.788;41.368;2023-04-20T02:18:43;99642.28;;;10.16;27.51
65384;BME280;51986;52.788;41.368;2023-04-20T02:21:10;99611.03;;;10.03;28.13
65384;BME280;51986;52.788;41.368;2023-04-20T02:23:37;99614.41;;;10.18;27.61
65384;BME280;51986;52.788;41.368;2023-04-20T02:26:04;99598.63;;;10.15;28.15
65384;BME280;51986;52.788;41.368;2023-04-20T02:28:31;99620.44;;;10.12;27.95
65384;BME280;51986;52.788;41.368;2023-04-20T02:30:58;99612.22;;;9.81;27.98
65384;BME280;51986;52.788;41.368;2023-04-20T02:33:25;99603.91;;;9.90;27.95
65384;BME280;51986;52.788;41.368;2023-04-20T02:35:52;99606.88;;;10.17;27.69
65384;BME280;51986;52.788;41.368;2023-04-20T02:38:19;99593.69;;;10.20;28.06
65384;BME280;51986;52.788;41.368;2023-04-20T02:40:46;99604.59;;;10.37;27.71
65384;BME280;51986;52.788;41.368;2023-04-20T02:43:14;99622.69;;;10.13;27.88
65384;BME280;51986;52.788;41.368;2023-04-20T02:45:41;99603.88;;;10.11;27.86
65384;BME280;51986;52.788;41.368;2023-04-20T02:48:10;99576.03;;;10.10;28.04
65384;BME280;51986;52.788;41.368;2023-04-20T02:50:36;99589.53;;;10.30;27.86
65384;BME280;51986;52.788;41.368;2023-04-20T02:53:14;99607.88;;;10.66;27.46
65384;BME280;51986;52.788;41.368;2023-04-20T02:55:44;99610.09;;;10.78;26.81
65384;BME280;51986;52.788;41.368;2023-04-20T02:58:38;99612.59;;;11.03;26.50
65384;BME280;51986;52.788;41.368;2023-04-20T03:01:14;99599.53;;;10.78;27.01
65384;BME280;51986;52.788;41.368;2023-04-20T03:03:41;99606.94;;;11.01;26.64
65384;BME280;51986;52.788;41.368;2023-04-20T03:06:10;99599.16;;;10.76;27.25
65384;BME280;51986;52.788;41.368;2023-04-20T03:08:40;99589.72;;;10.82;26.61
65384;BME280;51986;52.788;41.368;2023-04-20T03:11:27;99616.75;;;11.00;27.39
65384;BME280;51986;52.788;41.368;2023-04-20T03:13:55;99601.38;;;10.88;27.03
65384;BME280;51986;52.788;41.368;2023-04-20T03:16:22;99582.75;;;11.09;26.50
65384;BME280;51986;52.788;41.368;2023-04-20T03:18:51;99618.13;;;11.23;27.01
65384;BME280;51986;52.788;41.368;2023-04-20T03:21:18;99582.19;;;11.36;26.17
65384;BME280;51986;52.788;41.368;2023-04-20T03:23:45;99607.63;;;11.68;25.55
65384;BME280;51986;52.788;41.368;2023-04-20T03:26:12;99593.25;;;12.44;25.18
65384;BME280;51986;52.788;41.368;2023-04-20T03:28:49;99603.66;;;12.89;24.52
65384;BME280;51986;52.788;41.368;2023-04-20T03:31:20;99599.53;;;13.38;24.08
65384;BME280;51986;52.788;41.368;2023-04-20T03:33:48;99608.25;;;14.06;23.29
65384;BME280;51986;52.788;41.368;2023-04-20T03:36:15;99598.28;;;14.89;22.26
65384;BME280;51986;52.788;41.368;2023-04-20T03:38:42;99605.91;;;15.24;21.82
65384;BME280;51986;52.788;41.368;2023-04-20T03:41:10;99603.59;;;14.33;22.59
65384;BME280;51986;52.788;41.368;2023-04-20T03:43:37;99609.34;;;14.32;22.30
65384;BME280;51986;52.788;41.368;2023-04-20T03:46:04;99603.06;;;14.42;22.46
65384;BME280;51986;52.788;41.368;2023-04-20T03:48:32;99600.41;;;14.22;22.80
65384;BME280;51986;52.788;41.368;2023-04-20T03:50:59;99601.69;;;13.71;22.93
65384;BME280;51986;52.788;41.368;2023-04-20T03:53:26;99614.47;;;13.52;23.12
65384;BME280;51986;52.788;41.368;2023-04-20T03:55:53;99579.28;;;13.01;24.17
65384;BME280;51986;52.788;41.368;2023-04-20T03:58:20;99607.63;;;13.04;24.02
65384;BME280;51986;52.788;41.368;2023-04-20T04:01:06;99604.31;;;13.24;24.09
65384;BME280;51986;52.788;41.368;2023-04-20T04:03:35;99621.00;;;13.21;23.92
65384;BME280;51986;52.788;41.368;2023-04-20T04:06:03;99594.09;;;12.99;23.65
65384;BME280;51986;52.788;41.368;2023-04-20T04:08:31;99578.22;;;12.95;23.78
65384;BME280;51986;52.788;41.368;2023-04-20T04:10:59;99574.81;;;12.95;24.24
65384;BME280;51986;52.788;41.368;2023-04-20T04:13:26;99593.22;;;13.05;24.00
65384;BME280;51986;52.788;41.368;2023-04-20T04:15:53;99593.56;;;12.80;24.55
65384;BME280;51986;52.788;41.368;2023-04-20T04:18:21;99607.47;;;13.15;23.58
65384;BME280;51986;52.788;41.368;2023-04-20T04:20:49;99592.28;;;13.19;24.06
65384;BME280;51986;52.788;41.368;2023-04-20T04:23:16;99602.34;;;13.04;24.43
65384;BME280;51986;52.788;41.368;2023-04-20T04:25:57;99594.22;;;13.15;24.26
65384;BME280;51986;52.788;41.368;2023-04-20T04:28:25;99600.28;;;13.39;24.22
65384;BME280;51986;52.788;41.368;2023-04-20T04:31:05;99595.13;;;13.32;24.04
65384;BME280;51986;52.788;41.368;2023-04-20T04:33:33;99577.38;;;13.52;24.07
65384;BME280;51986;52.788;41.368;2023-04-20T04:36:02;99582.19;;;13.81;23.89
65384;BME280;51986;52.788;41.368;2023-04-20T04:38:32;99587.03;;;14.06;23.68
65384;BME280;51986;52.788;41.368;2023-04-20T04:40:59;99585.25;;;14.23;23.44
65384;BME280;51986;52.788;41.368;2023-04-20T04:43:28;99572.28;;;14.64;22.88
65384;BME280;51986;52.788;41.368;2023-04-20T04:46:14;99567.34;;;14.99;22.49
65384;BME280;51986;52.788;41.368;2023-04-20T04:48:41;99583.38;;;15.90;21.67
65384;BME280;51986;52.788;41.368;2023-04-20T04:51:08;99586.59;;;16.27;21.00
65384;BME280;51986;52.788;41.368;2023-04-20T04:53:36;99590.50;;;16.77;21.09
65384;BME280;51986;52.788;41.368;2023-04-20T04:56:03;99576.66;;;16.82;21.17
65384;BME280;51986;52.788;41.368;2023-04-20T04:58:30;99574.50;;;17.02;20.71
65384;BME280;51986;52.788;41.368;2023-04-20T05:00:57;99561.50;;;16.28;21.47
65384;BME280;51986;52.788;41.368;2023-04-20T05:03:24;99575.13;;;16.55;21.16
65384;BME280;51986;52.788;41.368;2023-04-20T05:05:51;99569.28;;;16.73;20.69
65384;BME280;51986;52.788;41.368;2023-04-20T05:08:19;99568.56;;;16.18;21.70
65384;BME280;51986;52.788;41.368;2023-04-20T05:10:47;99567.69;;;16.08;21.18
65384;BME280;51986;52.788;41.368;2023-04-20T05:13:13;99547.84;;;16.26;21.59
65384;BME280;51986;52.788;41.368;2023-04-20T05:15:41;99561.41;;;16.57;21.42
65384;BME280;51986;52.788;41.368;2023-04-20T05:18:09;99571.72;;;16.55;21.64
65384;BME280;51986;52.788;41.368;2023-04-20T05:20:36;99557.47;;;16.61;21.50
65384;BME280;51986;52.788;41.368;2023-04-20T05:23:03;99581.97;;;16.82;21.22
65384;BME280;51986;52.788;41.368;2023-04-20T05:25:30;99535.69;;;17.01;21.06
65384;BME280;51986;52.788;41.368;2023-04-20T05:27:57;99559.44;;;17.08;21.18
65384;BME280;51986;52.788;41.368;2023-04-20T05:30:25;99551.97;;;17.16;21.11
65384;BME280;51986;52.788;41.368;2023-04-20T05:32:52;99562.34;;;16.88;21.37
65384;BME280;51986;52.788;41.368;2023-04-20T05:35:19;99553.59;;;17.26;21.18
65384;BME280;51986;52.788;41.368;2023-04-20T05:37:47;99568.56;;;17.45;20.59
65384;BME280;51986;52.788;41.368;2023-04-20T05:40:14;99553.25;;;17.71;20.25
65384;BME280;51986;52.788;41.368;2023-04-20T05:42:41;99572.59;;;17.63;19.98
65384;BME280;51986;52.788;41.368;2023-04-20T05:45:09;99571.09;;;17.84;20.01
65384;BME280;51986;52.788;41.368;2023-04-20T05:47:36;99567.84;;;17.45;20.37
65384;BME280;51986;52.788;41.368;2023-04-20T05:50:04;99558.41;;;16.93;21.12
65384;BME280;51986;52.788;41.368;2023-04-20T05:52:31;99534.50;;;17.15;20.83
65384;BME280;51986;52.788;41.368;2023-04-20T05:54:58;99565.31;;;17.03;20.61
65384;BME280;51986;52.788;41.368;2023-04-20T05:57:25;99548.09;;;16.95;21.01
65384;BME280;51986;52.788;41.368;2023-04-20T05:59:52;99564.78;;;17.34;21.12
65384;BME280;51986;52.788;41.368;2023-04-20T06:02:19;99560.06;;;17.38;20.75
65384;BME280;51986;52.788;41.368;2023-04-20T06:04:48;99562.88;;;17.21;20.52
65384;BME280;51986;52.788;41.368;2023-04-20T06:07:15;99557.59;;;17.43;20.45
65384;BME280;51986;52.788;41.368;2023-04-20T06:09:42;99540.78;;;17.34;20.97
65384;BME280;51986;52.788;41.368;2023-04-20T06:12:09;99554.75;;;17.12;21.26
65384;BME280;51986;52.788;41.368;2023-04-20T06:14:36;99540.56;;;17.15;21.30
65384;BME280;51986;52.788;41.368;2023-04-20T06:17:03;99540.84;;;17.43;20.47
65384;BME280;51986;52.788;41.368;2023-04-20T06:19:30;99557.25;;;17.19;20.75
65384;BME280;51986;52.788;41.368;2023-04-20T06:22:07;99543.19;;;17.97;20.33
65384;BME280;51986;52.788;41.368;2023-04-20T06:24:35;99555.75;;;17.53;20.48
65384;BME280;51986;52.788;41.368;2023-04-20T06:27:02;99538.34;;;17.27;20.33
65384;BME280;51986;52.788;41.368;2023-04-20T06:29:29;99543.13;;;17.32;20.50
65384;BME280;51986;52.788;41.368;2023-04-20T06:31:56;99557.78;;;17.49;20.80
65384;BME280;51986;52.788;41.368;2023-04-20T06:34:23;99555.94;;;17.24;20.42
65384;BME280;51986;52.788;41.368;2023-04-20T06:36:50;99534.50;;;17.15;20.29
65384;BME280;51986;52.788;41.368;2023-04-20T06:39:17;99552.13;;;17.82;21.13
65384;BME280;51986;52.788;41.368;2023-04-20T06:41:44;99557.53;;;17.91;19.99
65384;BME280;51986;52.788;41.368;2023-04-20T06:44:13;99530.09;;;18.12;19.32
65384;BME280;51986;52.788;41.368;2023-04-20T06:46:40;99575.59;;;18.31;18.37
65384;BME280;51986;52.788;41.368;2023-04-20T06:49:07;99539.00;;;18.90;18.36
65384;BME280;51986;52.788;41.368;2023-04-20T06:51:34;99533.59;;;18.62;18.22
65384;BME280;51986;52.788;41.368;2023-04-20T06:54:01;99533.34;;;18.79;18.21
65384;BME280;51986;52.788;41.368;2023-04-20T06:56:28;99522.16;;;18.71;18.50
65384;BME280;51986;52.788;41.368;2023-04-20T06:58:55;99537.66;;;18.94;18.01
65384;BME280;51986;52.788;41.368;2023-04-20T07:01:22;99525.44;;;19.24;17.37
65384;BME280;51986;52.788;41.368;2023-04-20T07:03:49;99518.16;;;19.25;17.15
65384;BME280;51986;52.788;41.368;2023-04-20T07:06:16;99506.81;;;19.67;17.17
65384;BME280;51986;52.788;41.368;2023-04-20T07:08:43;99507.13;;;19.96;17.08
65384;BME280;51986;52.788;41.368;2023-04-20T07:11:10;99538.34;;;19.90;15.65
65384;BME280;51986;52.788;41.368;2023-04-20T07:13:37;99526.59;;;19.97;16.27
65384;BME280;51986;52.788;41.368;2023-04-20T07:16:04;99513.34;;;20.45;15.88
65384;BME280;51986;52.788;41.368;2023-04-20T07:18:32;99544.38;;;20.94;15.97
65384;BME280;51986;52.788;41.368;2023-04-20T07:21:01;99504.38;;;20.81;15.12
65384;BME280;51986;52.788;41.368;2023-04-20T07:23:28;99480.53;;;20.59;14.97
65384;BME280;51986;52.788;41.368;2023-04-20T07:25:55;99504.16;;;20.94;15.28
65384;BME280;51986;52.788;41.368;2023-04-20T07:28:22;99498.41;;;20.86;15.14
65384;BME280;51986;52.788;41.368;2023-04-20T07:30:49;99507.56;;;21.18;14.92
65384;BME280;51986;52.788;41.368;2023-04-20T07:33:16;99493.03;;;21.25;14.21
65384;BME280;51986;52.788;41.368;2023-04-20T07:35:43;99504.59;;;21.16;13.71
65384;BME280;51986;52.788;41.368;2023-04-20T07:38:10;99493.91;;;21.31;13.83
65384;BME280;51986;52.788;41.368;2023-04-20T07:40:37;99510.50;;;21.20;14.85
65384;BME280;51986;52.788;41.368;2023-04-20T07:43:04;99508.84;;;21.08;13.94
65384;BME280;51986;52.788;41.368;2023-04-20T07:45:31;99479.63;;;20.86;14.26
65384;BME280;51986;52.788;41.368;2023-04-20T07:47:58;99484.56;;;20.55;14.69
65384;BME280;51986;52.788;41.368;2023-04-20T07:50:25;99489.88;;;20.31;14.82
65384;BME280;51986;52.788;41.368;2023-04-20T07:52:53;99489.69;;;20.34;14.60
65384;BME280;51986;52.788;41.368;2023-04-20T07:55:20;99486.28;;;20.34;14.91
65384;BME280;51986;52.788;41.368;2023-04-20T07:57:47;99447.41;;;20.05;14.73
65384;BME280;51986;52.788;41.368;2023-04-20T08:00:14;99457.34;;;20.47;14.34
65384;BME280;51986;52.788;41.368;2023-04-20T08:02:44;99453.56;;;20.30;14.05
65384;BME280;51986;52.788;41.368;2023-04-20T08:05:11;99439.63;;;19.83;14.86
65384;BME280;51986;52.788;41.368;2023-04-20T08:07:39;99450.47;;;19.70;14.90
65384;BME280;51986;52.788;41.368;2023-04-20T08:10:06;99448.72;;;19.58;14.59
65384;BME280;51986;52.788;41.368;2023-04-20T08:12:33;99448.75;;;19.49;14.34
65384;BME280;51986;52.788;41.368;2023-04-20T08:15:01;99449.84;;;19.94;14.26
65384;BME280;51986;52.788;41.368;2023-04-20T08:17:28;99442.66;;;20.09;13.94
65384;BME280;51986;52.788;41.368;2023-04-20T08:19:55;99448.69;;;20.52;13.70
65384;BME280;51986;52.788;41.368;2023-04-20T08:22:22;99414.69;;;20.58;13.65
65384;BME280;51986;52.788;41.368;2023-04-20T08:24:52;99427.94;;;20.86;13.35
65384;BME280;51986;52.788;41.368;2023-04-20T08:27:19;99402.34;;;19.52;14.44
65384;BME280;51986;52.788;41.368;2023-04-20T08:29:46;99438.31;;;19.60;14.59
65384;BME280;51986;52.788;41.368;2023-04-20T08:32:13;99428.44;;;19.75;14.56
65384;BME280;51986;52.788;41.368;2023-04-20T08:34:40;99397.25;;;20.15;14.28
65384;BME280;51986;52.788;41.368;2023-04-20T08:37:07;99409.44;;;19.83;15.18
65384;BME280;51986;52.788;41.368;2023-04-20T08:39:34;99393.38;;;19.73;14.89
65384;BME280;51986;52.788;41.368;2023-04-20T08:42:01;99411.50;;;19.79;15.16
65384;BME280;51986;52.788;41.368;2023-04-20T08:44:28;99418.94;;;19.84;14.61
65384;BME280;51986;52.788;41.368;2023-04-20T08:46:55;99380.88;;;19.80;14.72
65384;BME280;51986;52.788;41.368;2023-04-20T08:49:26;99413.06;;;20.37;15.08
65384;BME280;51986;52.788;41.368;2023-04-20T08:51:53;99416.41;;;19.89;15.28
65384;BME280;51986;52.788;41.368;2023-04-20T08:54:20;99415.38;;;19.77;15.12
65384;BME280;51986;52.788;41.368;2023-04-20T08:56:50;99400.88;;;19.42;15.41
65384;BME280;51986;52.788;41.368;2023-04-20T08:59:17;99392.50;;;20.10;14.64
65384;BME280;51986;52.788;41.368;2023-04-20T09:01:44;99405.06;;;20.51;14.56
65384;BME280;51986;52.788;41.368;2023-04-20T09:06:48;99410.94;;;20.17;14.85
65384;BME280;51986;52.788;41.368;2023-04-20T09:09:16;99401.50;;;20.31;14.46
65384;BME280;51986;52.788;41.368;2023-04-20T09:11:44;99404.41;;;20.66;14.33
65384;BME280;51986;52.788;41.368;2023-04-20T09:14:13;99398.75;;;20.40;13.99
65384;BME280;51986;52.788;41.368;2023-04-20T09:16:50;99418.22;;;20.16;14.48
65384;BME280;51986;52.788;41.368;2023-04-20T09:19:24;99390.41;;;19.71;14.55
65384;BME280;51986;52.788;41.368;2023-04-20T09:21:54;99365.41;;;19.84;14.63
65384;BME280;51986;52.788;41.368;2023-04-20T09:24:29;99357.50;;;19.89;14.86
65384;BME280;51986;52.788;41.368;2023-04-20T09:26:56;99379.31;;;20.06;14.10
65384;BME280;51986;52.788;41.368;2023-04-20T09:29:23;99373.28;;;19.78;14.26
65384;BME280;51986;52.788;41.368;2023-04-20T09:31:51;99372.66;;;20.25;14.19
65384;BME280;51986;52.788;41.368;2023-04-20T09:34:18;99358.97;;;20.23;15.28
65384;BME280;51986;52.788;41.368;2023-04-20T09:36:48;99381.47;;;20.17;14.60
65384;BME280;51986;52.788;41.368;2023-04-20T09:39:19;99355.59;;;20.38;14.04
65384;BME280;51986;52.788;41.368;2023-04-20T09:41:49;99332.94;;;19.91;15.11
65384;BME280;51986;52.788;41.368;2023-04-20T09:44:17;99355.53;;;19.99;15.03
65384;BME280;51986;52.788;41.368;2023-04-20T09:46:44;99336.84;;;20.38;14.28
65384;BME280;51986;52.788;41.368;2023-04-20T09:49:12;99338.66;;;20.56;13.75
65384;BME280;51986;52.788;41.368;2023-04-20T09:51:41;99334.84;;;20.86;13.12
65384;BME280;51986;52.788;41.368;2023-04-20T09:54:10;99374.88;;;20.27;14.00
65384;BME280;51986;52.788;41.368;2023-04-20T09:56:38;99365.50;;;20.46;14.61
65384;BME280;51986;52.788;41.368;2023-04-20T09:59:06;99354.72;;;20.80;13.95
65384;BME280;51986;52.788;41.368;2023-04-20T10:01:34;99341.59;;;20.96;13.85
65384;BME280;51986;52.788;41.368;2023-04-20T10:04:06;99341.25;;;20.89;14.21
65384;BME280;51986;52.788;41.368;2023-04-20T10:06:34;99327.78;;;20.59;14.05
65384;BME280;51986;52.788;41.368;2023-04-20T10:09:03;99329.78;;;20.25;13.78
65384;BME280;51986;52.788;41.368;2023-04-20T10:11:34;99331.81;;;20.78;14.14
65384;BME280;51986;52.788;41.368;2023-04-20T10:14:20;99322.94;;;20.24;14.31
65384;BME280;51986;52.788;41.368;2023-04-20T10:17:01;99325.16;;;20.50;14.72
65384;BME280;51986;52.788;41.368;2023-04-20T10:19:55;99325.38;;;20.61;14.51
65384;BME280;51986;52.788;41.368;2023-04-20T10:22:28;99271.00;;;20.07;14.70
65384;BME280;51986;52.788;41.368;2023-04-20T10:24:58;99311.31;;;20.27;14.52
65384;BME280;51986;52.788;41.368;2023-04-20T10:27:27;99315.59;;;20.73;14.11
65384;BME280;51986;52.788;41.368;2023-04-20T10:29:57;99299.06;;;20.74;14.45
65384;BME280;51986;52.788;41.368;2023-04-20T10:32:34;99310.13;;;20.67;14.43
65384;BME280;51986;52.788;41.368;2023-04-20T10:35:06;99304.53;;;20.41;14.88
65384;BME280;51986;52.788;41.368;2023-04-20T10:37:34;99324.53;;;20.55;14.36
65384;BME280;51986;52.788;41.368;2023-04-20T10:40:02;99319.50;;;21.01;14.39
65384;BME280;51986;52.788;41.368;2023-04-20T10:42:43;99321.56;;;21.21;13.61
65384;BME280;51986;52.788;41.368;2023-04-20T10:45:11;99306.75;;;21.26;13.59
65384;BME280;51986;52.788;41.368;2023-04-20T10:47:38;99313.53;;;21.07;13.46
65384;BME280;51986;52.788;41.368;2023-04-20T10:50:10;99312.97;;;21.02;13.98
65384;BME280;51986;52.788;41.368;2023-04-20T10:52:39;99298.81;;;21.02;13.62
65384;BME280;51986;52.788;41.368;2023-04-20T10:55:20;99304.22;;;20.63;14.33
65384;BME280;51986;52.788;41.368;2023-04-20T10:57:48;99309.41;;;20.82;13.65
65384;BME280;51986;52.788;41.368;2023-04-20T11:00:19;99305.25;;;20.66;14.30
65384;BME280;51986;52.788;41.368;2023-04-20T11:02:48;99320.59;;;20.41;13.97
65384;BME280;51986;52.788;41.368;2023-04-20T11:05:18;99317.66;;;20.78;13.83
65384;BME280;51986;52.788;41.368;2023-04-20T11:07:58;99314.03;;;20.66;14.13
65384;BME280;51986;52.788;41.368;2023-04-20T11:10:39;99297.69;;;20.79;14.28
65384;BME280;51986;52.788;41.368;2023-04-20T11:13:22;99291.03;;;21.19;13.83
65384;BME280;51986;52.788;41.368;2023-04-20T11:15:49;99296.25;;;20.54;14.38
65384;BME280;51986;52.788;41.368;2023-04-20T11:18:16;99313.03;;;20.78;13.97
65384;BME280;51986;52.788;41.368;2023-04-20T11:20:53;99362.19;;;20.51;14.09
65384;BME280;51986;52.788;41.368;2023-04-20T11:23:22;99284.69;;;20.24;14.02
65384;BME280;51986;52.788;41.368;2023-04-20T11:25:54;99303.31;;;20.66;14.13
65384;BME280;51986;52.788;41.368;2023-04-20T11:28:22;99276.72;;;20.53;14.26
65384;BME280;51986;52.788;41.368;2023-04-20T11:30:49;99365.59;;;20.61;14.44
65384;BME280;51986;52.788;41.368;2023-04-20T11:33:26;99290.00;;;20.72;14.21
65384;BME280;51986;52.788;41.368;2023-04-20T11:35:59;99306.19;;;20.77;13.78
65384;BME280;51986;52.788;41.368;2023-04-20T11:38:31;99282.06;;;21.07;13.86
65384;BME280;51986;52.788;41.368;2023-04-20T11:40:59;99288.53;;;21.00;14.07
65384;BME280;51986;52.788;41.368;2023-04-20T11:43:26;99272.44;;;20.86;14.01
65384;BME280;51986;52.788;41.368;2023-04-20T11:45:53;99294.75;;;20.53;13.46
65384;BME280;51986;52.788;41.368;2023-04-20T11:48:20;99272.06;;;20.63;13.91
65384;BME280;51986;52.788;41.368;2023-04-20T11:50:47;99263.53;;;20.50;14.10
65384;BME280;51986;52.788;41.368;2023-04-20T11:53:14;99258.50;;;20.43;14.11
65384;BME280;51986;52.788;41.368;2023-04-20T11:55:41;99254.13;;;20.55;13.92
65384;BME280;51986;52.788;41.368;2023-04-20T11:58:08;99259.81;;;20.47;13.95
65384;BME280;51986;52.788;41.368;2023-04-20T12:00:35;99244.81;;;20.80;13.20
65384;BME280;51986;52.788;41.368;2023-04-20T12:03:02;99280.41;;;20.65;13.13
65384;BME280;51986;52.788;41.368;2023-04-20T12:05:30;99194.06;;;20.61;13.30
65384;BME280;51986;52.788;41.368;2023-04-20T12:07:57;99261.28;;;20.34;13.72
65384;BME280;51986;52.788;41.368;2023-04-20T12:10:24;99232.19;;;19.79;13.85
65384;BME280;51986;52.788;41.368;2023-04-20T12:12:51;99248.50;;;19.90;13.97
65384;BME280;51986;52.788;41.368;2023-04-20T12:15:18;99249.53;;;19.92;14.61
65384;BME280;51986;52.788;41.368;2023-04-20T12:17:45;99245.91;;;19.95;14.10
65384;BME280;51986;52.788;41.368;2023-04-20T12:20:12;99237.28;;;19.67;13.81
65384;BME280;51986;52.788;41.368;2023-04-20T12:22:39;99254.41;;;19.28;14.23
65384;BME280;51986;52.788;41.368;2023-04-20T12:25:07;99237.47;;;19.31;14.75
65384;BME280;51986;52.788;41.368;2023-04-20T12:27:34;99217.94;;;19.48;14.69
65384;BME280;51986;52.788;41.368;2023-04-20T12:30:01;99209.47;;;19.74;13.92
65384;BME280;51986;52.788;41.368;2023-04-20T12:32:28;99241.47;;;19.68;15.10
65384;BME280;51986;52.788;41.368;2023-04-20T12:34:55;99240.94;;;19.79;14.45
65384;BME280;51986;52.788;41.368;2023-04-20T12:37:22;99245.44;;;19.82;14.63
65384;BME280;51986;52.788;41.368;2023-04-20T12:39:49;99223.88;;;20.00;14.61
65384;BME280;51986;52.788;41.368;2023-04-20T12:42:16;99233.03;;;20.09;14.37
65384;BME280;51986;52.788;41.368;2023-04-20T12:44:43;99225.88;;;19.91;14.67
65384;BME280;51986;52.788;41.368;2023-04-20T12:47:10;99229.53;;;20.02;14.46
65384;BME280;51986;52.788;41.368;2023-04-20T12:49:37;99221.00;;;20.28;14.04
65384;BME280;51986;52.788;41.368;2023-04-20T12:52:04;99218.59;;;19.91;14.48
65384;BME280;51986;52.788;41.368;2023-04-20T12:54:33;99229.41;;;19.97;14.77
65384;BME280;51986;52.788;41.368;2023-04-20T12:57:03;99213.16;;;20.00;15.03
65384;BME280;51986;52.788;41.368;2023-04-20T12:59:30;99214.25;;;19.94;15.40